Greenwich Township, New Jersey
Current Conditions -  °F | °C
As of 12:54 PM on Friday 21 Nov 2014 (Local Time) from KMIV Reporting Station
Clear Clear  
Wind Chill: 27°   Ceiling: Unl
Heat Index: 36°   Visibility: 10mi
Dew Point:   Wind: 14mph
Humidity: 30%   Direction: 310°NW
Pressure: 30.38"   Gusts: 24mph
Location:  39.386°N, 75.3403°W
Report Text: KMIV 211754Z AUTO 31012G21KT 10SM CLR 02/M14 A3038 RMK AO2 PK WND 32026/1741 SLP286 T00221139 10022 21022 51002
Loading
Personal Weather Stations






























Interactive Weather Map New forecast layout! Learn more

10-Day Weather Forecast

Advertisements
Track Severe Weather on mobile